createdAt,value
2022-08-17T00:00:35.006Z,23.20
2022-08-17T00:03:26.354Z,23.20
2022-08-17T00:06:07.001Z,23.20
2022-08-17T00:08:44.487Z,23.10
2022-08-17T00:11:34.529Z,23.10
2022-08-17T00:14:14.059Z,23.00
2022-08-17T00:16:56.982Z,23.00
2022-08-17T00:19:26.225Z,22.90
2022-08-17T00:22:32.713Z,22.90
2022-08-17T00:24:45.259Z,22.80
2022-08-17T00:27:12.295Z,22.80
2022-08-17T00:29:39.323Z,22.80
2022-08-17T00:33:15.124Z,22.70
2022-08-17T00:34:54.087Z,22.70
2022-08-17T00:37:21.550Z,22.70
2022-08-17T00:39:48.623Z,22.70
2022-08-17T00:42:21.250Z,22.60
2022-08-17T00:44:48.868Z,22.60
2022-08-17T00:47:15.903Z,22.50
2022-08-17T00:49:43.078Z,22.50
2022-08-17T00:52:19.182Z,22.50
2022-08-17T00:54:52.201Z,22.40
2022-08-17T00:57:29.105Z,22.40
2022-08-17T01:00:21.291Z,22.40
2022-08-17T01:02:49.234Z,22.40
2022-08-17T01:05:25.886Z,22.30
2022-08-17T01:07:55.161Z,22.30
2022-08-17T01:10:58.444Z,22.30
2022-08-17T01:13:25.455Z,22.20
2022-08-17T01:16:07.901Z,22.20
2022-08-17T01:18:36.014Z,22.10
2022-08-17T01:21:20.226Z,22.10
2022-08-17T01:23:47.922Z,22.10
2022-08-17T01:26:16.186Z,22.00
2022-08-17T01:28:54.242Z,22.00
2022-08-17T01:31:28.561Z,21.90
2022-08-17T01:33:59.860Z,21.90
2022-08-17T01:36:29.253Z,21.90
2022-08-17T01:38:56.742Z,21.90
2022-08-17T01:41:24.791Z,21.90
2022-08-17T01:44:03.457Z,21.80
2022-08-17T01:46:36.150Z,21.80
2022-08-17T01:49:09.198Z,21.80
2022-08-17T01:51:37.301Z,21.70
2022-08-17T01:54:11.542Z,21.70
2022-08-17T01:56:43.741Z,21.70
2022-08-17T01:59:18.467Z,21.70
2022-08-17T02:01:47.717Z,21.60
2022-08-17T02:04:16.144Z,21.60
2022-08-17T02:06:52.461Z,21.60
2022-08-17T02:09:23.971Z,21.60
2022-08-17T02:11:58.934Z,21.50
2022-08-17T02:14:26.906Z,21.50
2022-08-17T02:16:54.661Z,21.40
2022-08-17T02:19:22.406Z,21.40
2022-08-17T02:21:52.530Z,21.40
2022-08-17T02:24:59.635Z,21.30
2022-08-17T02:27:16.600Z,21.30
2022-08-17T02:29:44.078Z,21.30
2022-08-17T02:32:27.458Z,21.30
2022-08-17T02:35:00.574Z,21.20
2022-08-17T02:37:29.759Z,21.20
2022-08-17T02:39:58.702Z,21.20
2022-08-17T02:42:38.506Z,21.10
2022-08-17T02:45:15.695Z,21.10
2022-08-17T02:47:44.189Z,21.10
2022-08-17T02:50:15.187Z,21.10
2022-08-17T02:52:48.821Z,21.00
2022-08-17T02:55:33.919Z,21.00
2022-08-17T02:58:01.855Z,20.90
2022-08-17T03:00:37.134Z,20.90
2022-08-17T03:03:06.045Z,20.90
2022-08-17T03:05:36.339Z,20.80
2022-08-17T03:08:05.631Z,20.80
2022-08-17T03:10:33.965Z,20.80
2022-08-17T03:13:01.561Z,20.80
2022-08-17T03:15:33.477Z,20.80
2022-08-17T03:18:02.518Z,20.80
2022-08-17T03:20:33.550Z,20.70
2022-08-17T03:23:02.814Z,20.70
2022-08-17T03:25:39.070Z,20.70
2022-08-17T03:28:07.374Z,20.70
2022-08-17T03:30:36.059Z,20.60
2022-08-17T03:33:07.383Z,20.60
2022-08-17T03:35:37.583Z,20.60
2022-08-17T03:38:05.210Z,20.50
2022-08-17T03:40:34.626Z,20.50
2022-08-17T03:43:23.034Z,20.50
2022-08-17T03:46:10.972Z,20.50
2022-08-17T03:49:13.529Z,20.50
2022-08-17T03:51:59.164Z,20.40
2022-08-17T03:54:44.821Z,20.40
2022-08-17T03:57:12.899Z,20.40
2022-08-17T03:59:40.881Z,20.30
2022-08-17T04:02:15.968Z,20.30
2022-08-17T04:04:43.290Z,20.30
2022-08-17T04:07:10.571Z,20.30
2022-08-17T04:09:38.040Z,20.30
2022-08-17T04:12:05.912Z,20.30
2022-08-17T04:14:51.494Z,20.30
2022-08-17T04:17:24.932Z,20.30
2022-08-17T04:19:53.396Z,20.30
2022-08-17T04:22:30.042Z,20.30
2022-08-17T04:24:59.138Z,20.30
2022-08-17T04:27:26.118Z,20.30
2022-08-17T04:29:55.602Z,20.30
2022-08-17T04:32:58.399Z,20.30
2022-08-17T04:35:11.658Z,20.40
2022-08-17T04:37:39.014Z,20.40
2022-08-17T04:40:27.175Z,20.40
2022-08-17T04:43:04.782Z,20.50
2022-08-17T04:45:32.616Z,20.60
2022-08-17T04:48:00.981Z,20.60
2022-08-17T04:50:28.817Z,20.60
2022-08-17T04:52:56.914Z,20.70
2022-08-17T04:55:24.370Z,20.70
2022-08-17T04:57:51.379Z,20.80
2022-08-17T05:00:18.730Z,20.80
2022-08-17T05:02:50.054Z,20.90
2022-08-17T05:05:28.242Z,21.00
2022-08-17T05:07:58.622Z,21.10
2022-08-17T05:10:31.706Z,21.10
2022-08-17T05:13:15.899Z,21.20
2022-08-17T05:15:47.647Z,21.30
2022-08-17T05:18:16.547Z,21.40
2022-08-17T05:20:44.452Z,21.50
2022-08-17T05:23:16.663Z,21.60
2022-08-17T05:25:47.927Z,21.80
2022-08-17T05:28:20.844Z,21.80
2022-08-17T05:30:51.945Z,22.00
2022-08-17T05:33:30.111Z,22.10
2022-08-17T05:35:59.494Z,22.20
2022-08-17T05:38:29.543Z,22.30
2022-08-17T05:41:00.279Z,22.40
2022-08-17T05:43:32.567Z,22.60
2022-08-17T05:46:26.414Z,22.80
2022-08-17T05:48:59.187Z,23.00
2022-08-17T05:52:00.133Z,23.20
2022-08-17T05:55:17.489Z,23.30
2022-08-17T05:58:09.894Z,23.50
2022-08-17T06:00:47.908Z,23.70
2022-08-17T06:03:34.249Z,23.80
2022-08-17T06:06:41.471Z,23.80
2022-08-17T06:09:37.086Z,24.00
2022-08-17T06:12:39.911Z,24.00
2022-08-17T06:15:31.551Z,24.10
2022-08-17T06:18:07.827Z,24.30
2022-08-17T06:20:58.401Z,24.30
2022-08-17T06:23:40.734Z,24.40
2022-08-17T06:26:22.054Z,24.50
2022-08-17T06:29:02.814Z,24.60
2022-08-17T06:31:36.876Z,24.60
2022-08-17T06:34:10.513Z,24.70
2022-08-17T06:37:09.170Z,24.80
2022-08-17T06:40:11.035Z,24.80
2022-08-17T06:43:06.430Z,24.90
2022-08-17T06:46:01.811Z,24.90
2022-08-17T06:49:07.736Z,25.00
2022-08-17T06:52:08.223Z,25.00
2022-08-17T06:55:18.161Z,25.10
2022-08-17T06:57:53.501Z,25.20
2022-08-17T07:00:28.324Z,25.30
2022-08-17T07:03:26.341Z,25.40
2022-08-17T07:06:00.861Z,25.50
2022-08-17T07:08:54.923Z,25.60
2022-08-17T07:11:53.315Z,25.70
2022-08-17T07:14:40.965Z,25.90
2022-08-17T07:17:13.988Z,26.10
2022-08-17T07:19:45.443Z,26.20
2022-08-17T07:23:00.201Z,26.30
2022-08-17T07:25:30.405Z,26.50
2022-08-17T07:28:05.302Z,26.80
2022-08-17T07:30:49.193Z,26.90
2022-08-17T07:33:23.762Z,27.20
2022-08-17T07:35:52.114Z,27.30
2022-08-17T07:38:25.370Z,27.40
2022-08-17T07:41:03.483Z,27.50
2022-08-17T07:43:39.999Z,27.80
2022-08-17T07:46:52.381Z,28.10
2022-08-17T07:49:46.373Z,28.20
2022-08-17T07:52:47.945Z,28.30
2022-08-17T07:55:34.885Z,28.40
2022-08-17T07:58:03.664Z,28.50
2022-08-17T08:00:33.522Z,28.60
2022-08-17T08:03:28.635Z,28.90
2022-08-17T08:06:01.362Z,29.20
2022-08-17T08:08:43.686Z,29.30
2022-08-17T08:11:29.628Z,29.50
2022-08-17T08:14:22.647Z,29.80
2022-08-17T08:17:07.065Z,30.20
2022-08-17T08:19:37.158Z,30.50
2022-08-17T08:22:11.099Z,30.60
2022-08-17T08:25:00.111Z,30.80
2022-08-17T08:27:50.154Z,30.70
2022-08-17T08:30:21.921Z,30.70
2022-08-17T08:32:57.606Z,30.70
2022-08-17T08:35:54.008Z,30.90
2022-08-17T08:38:50.836Z,31.10
2022-08-17T08:42:13.016Z,31.20
2022-08-17T08:45:00.616Z,31.30
2022-08-17T08:48:02.392Z,31.30
2022-08-17T08:51:00.932Z,31.40
2022-08-17T08:54:05.908Z,31.40
2022-08-17T09:00:07.250Z,31.60
2022-08-17T09:02:58.569Z,31.90
2022-08-17T09:05:42.777Z,32.10
2022-08-17T09:08:28.214Z,32.30
2022-08-17T09:11:31.088Z,32.50
2022-08-17T09:14:26.761Z,32.70
2022-08-17T09:17:12.738Z,33.00
2022-08-17T09:20:01.308Z,33.20
2022-08-17T09:22:38.556Z,33.30
2022-08-17T09:25:23.268Z,33.70
2022-08-17T09:28:13.300Z,33.90
2022-08-17T09:30:52.581Z,34.20
2022-08-17T09:33:29.014Z,34.40
2022-08-17T09:36:07.275Z,34.50
2022-08-17T09:39:10.138Z,34.80
2022-08-17T09:41:51.728Z,35.00
2022-08-17T09:44:37.846Z,35.20
2022-08-17T09:47:24.809Z,35.40
2022-08-17T09:50:04.774Z,35.60
2022-08-17T09:52:32.579Z,35.80
2022-08-17T09:55:01.855Z,36.20
2022-08-17T09:58:09.950Z,36.30
2022-08-17T10:00:57.811Z,36.50
2022-08-17T10:03:51.603Z,36.60
2022-08-17T10:06:24.763Z,36.70
2022-08-17T10:09:02.161Z,36.90
2022-08-17T10:11:57.688Z,37.10
2022-08-17T10:15:07.752Z,37.20
2022-08-17T10:18:14.738Z,37.60
2022-08-17T10:21:24.725Z,37.70
2022-08-17T10:25:21.578Z,37.70
2022-08-17T10:27:54.323Z,37.70
2022-08-17T10:30:26.718Z,37.80
2022-08-17T10:33:13.636Z,37.90
2022-08-17T10:36:06.397Z,37.90
2022-08-17T10:38:49.737Z,37.80
2022-08-17T10:41:38.220Z,37.60
2022-08-17T10:44:40.698Z,37.40
2022-08-17T10:47:16.254Z,37.30
2022-08-17T10:49:56.034Z,37.30
2022-08-17T10:52:25.168Z,37.30
2022-08-17T10:54:54.896Z,37.40
2022-08-17T10:57:37.326Z,37.40
2022-08-17T11:00:27.820Z,37.40
2022-08-17T11:02:57.825Z,37.40
2022-08-17T11:05:44.619Z,37.60
2022-08-17T11:08:57.036Z,37.70
2022-08-17T11:11:50.925Z,38.00
2022-08-17T11:15:01.737Z,38.40
2022-08-17T11:17:49.594Z,38.50
2022-08-17T11:21:12.182Z,38.50
2022-08-17T11:24:24.101Z,38.50
2022-08-17T11:27:28.660Z,38.60
2022-08-17T11:30:03.891Z,39.00
2022-08-17T11:32:53.024Z,39.10
2022-08-17T11:35:22.163Z,39.20
2022-08-17T11:38:34.676Z,39.40
2022-08-17T11:41:36.175Z,39.50
2022-08-17T11:44:28.259Z,39.70
2022-08-17T11:47:56.984Z,39.80
2022-08-17T11:51:35.035Z,40.20
2022-08-17T11:54:33.308Z,40.10
2022-08-17T11:57:27.677Z,39.80
2022-08-17T12:00:11.414Z,39.70
2022-08-17T12:02:48.513Z,39.80
2022-08-17T12:05:25.223Z,39.90
2022-08-17T12:08:04.617Z,39.70
2022-08-17T12:10:36.654Z,39.40
2022-08-17T12:13:14.487Z,39.30
2022-08-17T12:15:49.687Z,39.30
2022-08-17T12:18:33.603Z,39.20
2022-08-17T12:21:48.639Z,39.00
2022-08-17T12:25:04.775Z,38.90
2022-08-17T12:28:04.211Z,38.70
2022-08-17T12:30:31.865Z,38.40
2022-08-17T12:32:59.782Z,38.10
2022-08-17T12:35:38.945Z,38.00
2022-08-17T12:38:26.888Z,37.80
2022-08-17T12:40:58.494Z,37.60
2022-08-17T12:43:32.835Z,37.40
2022-08-17T12:46:13.236Z,37.30
2022-08-17T12:48:59.688Z,37.10
2022-08-17T12:51:34.227Z,37.00
2022-08-17T12:54:02.422Z,36.90
2022-08-17T12:56:29.888Z,36.80
2022-08-17T12:58:57.787Z,36.80
2022-08-17T13:01:26.468Z,36.80
2022-08-17T13:03:59.577Z,37.30
2022-08-17T13:06:34.799Z,37.80
2022-08-17T13:09:18.341Z,37.80
2022-08-17T13:11:56.664Z,37.90
2022-08-17T13:14:23.790Z,37.80
2022-08-17T13:17:07.150Z,37.60
2022-08-17T13:19:50.077Z,37.50
2022-08-17T13:22:23.116Z,37.40
2022-08-17T13:25:00.771Z,37.30
2022-08-17T13:27:32.442Z,37.10
2022-08-17T13:30:11.738Z,37.10
2022-08-17T13:32:48.159Z,37.00
2022-08-17T13:35:45.902Z,36.90
2022-08-17T13:38:51.084Z,36.80
2022-08-17T13:41:38.922Z,36.90
2022-08-17T13:44:33.713Z,37.20
2022-08-17T13:47:03.006Z,37.50
2022-08-17T13:49:41.574Z,37.50
2022-08-17T13:52:41.270Z,37.50
2022-08-17T13:55:22.876Z,37.60
2022-08-17T13:58:06.536Z,37.50
2022-08-17T14:00:36.839Z,37.60
2022-08-17T14:03:05.628Z,37.60
2022-08-17T14:05:33.868Z,37.80
2022-08-17T14:08:06.944Z,37.90
2022-08-17T14:10:36.307Z,38.00
2022-08-17T14:13:04.400Z,38.20
2022-08-17T14:15:54.662Z,38.30
2022-08-17T14:18:35.480Z,38.50
2022-08-17T14:21:09.400Z,38.60
2022-08-17T14:23:37.823Z,38.80
2022-08-17T14:26:05.532Z,38.90
2022-08-17T14:28:33.256Z,39.20
2022-08-17T14:31:03.791Z,39.40
2022-08-17T14:33:30.896Z,39.50
2022-08-17T14:35:58.661Z,39.40
2022-08-17T14:38:25.735Z,39.50
2022-08-17T14:40:52.989Z,39.50
2022-08-17T14:43:20.970Z,39.40
2022-08-17T14:45:47.969Z,39.40
2022-08-17T14:48:15.846Z,39.20
2022-08-17T14:50:44.195Z,39.10
2022-08-17T14:53:16.061Z,39.00
2022-08-17T14:55:47.350Z,38.70
2022-08-17T14:58:15.816Z,38.50
2022-08-17T15:00:43.607Z,38.30
2022-08-17T15:03:11.938Z,38.10
2022-08-17T15:05:40.318Z,37.90
2022-08-17T15:08:07.848Z,37.80
2022-08-17T15:10:36.502Z,37.60
2022-08-17T15:13:04.100Z,37.50
2022-08-17T15:15:31.264Z,37.40
2022-08-17T15:17:59.825Z,37.30
2022-08-17T15:20:30.148Z,37.20
2022-08-17T15:22:59.030Z,37.10
2022-08-17T15:25:30.290Z,37.00
2022-08-17T15:27:58.285Z,36.90
2022-08-17T15:30:26.553Z,36.80
2022-08-17T15:32:56.582Z,36.80
2022-08-17T15:35:29.745Z,36.80
2022-08-17T15:38:06.127Z,36.80
2022-08-17T15:40:44.333Z,36.80
2022-08-17T15:43:17.574Z,36.90
2022-08-17T15:45:52.910Z,36.90
2022-08-17T15:48:43.002Z,36.90
2022-08-17T15:51:17.811Z,36.90
2022-08-17T15:53:49.550Z,36.90
2022-08-17T15:56:17.194Z,36.90
2022-08-17T15:58:46.795Z,36.90
2022-08-17T16:01:42.243Z,36.90
2022-08-17T16:04:26.820Z,36.80
2022-08-17T16:06:54.958Z,36.60
2022-08-17T16:09:22.054Z,36.60
2022-08-17T16:11:53.741Z,36.60
2022-08-17T16:14:24.271Z,36.60
2022-08-17T16:16:51.715Z,36.50
2022-08-17T16:19:18.702Z,36.70
2022-08-17T16:21:45.926Z,36.60
2022-08-17T16:24:13.691Z,36.50
2022-08-17T16:26:42.578Z,36.40
2022-08-17T16:29:10.745Z,36.40
2022-08-17T16:31:38.481Z,36.40
2022-08-17T16:34:17.767Z,36.40
2022-08-17T16:36:55.333Z,36.30
2022-08-17T16:39:29.142Z,36.20
2022-08-17T16:41:57.608Z,35.70
2022-08-17T16:44:28.886Z,34.50
2022-08-17T16:46:57.434Z,33.40
2022-08-17T16:49:35.509Z,32.70
2022-08-17T16:52:10.715Z,32.70
2022-08-17T16:54:43.649Z,32.40
2022-08-17T16:57:13.423Z,31.90
2022-08-17T16:59:44.887Z,31.50
2022-08-17T17:02:23.505Z,31.40
2022-08-17T17:05:17.666Z,31.10
2022-08-17T17:08:03.768Z,31.00
2022-08-17T17:11:25.026Z,31.20
2022-08-17T17:14:02.122Z,30.70
2022-08-17T17:16:35.352Z,31.20
2022-08-17T17:19:34.946Z,30.50
2022-08-17T17:22:30.119Z,30.80
2022-08-17T17:25:16.034Z,31.10
2022-08-17T17:28:07.240Z,31.40
2022-08-17T17:30:57.658Z,31.00
2022-08-17T17:33:42.449Z,30.90
2022-08-17T17:36:43.201Z,31.00
2022-08-17T17:39:19.015Z,30.80
2022-08-17T17:41:58.251Z,30.90
2022-08-17T17:44:34.331Z,31.00
2022-08-17T17:47:04.791Z,31.10
2022-08-17T17:49:46.452Z,31.30
2022-08-17T17:52:53.546Z,31.60
2022-08-17T17:55:37.899Z,31.80
2022-08-17T17:58:49.386Z,31.80
2022-08-17T18:02:02.156Z,31.90
2022-08-17T18:04:47.547Z,31.90
2022-08-17T18:07:39.277Z,31.80
2022-08-17T18:10:31.613Z,31.80
2022-08-17T18:13:26.604Z,31.70
2022-08-17T18:15:56.528Z,31.60
2022-08-17T18:18:37.780Z,31.50
2022-08-17T18:21:18.950Z,31.50
2022-08-17T18:23:57.600Z,31.40
2022-08-17T18:26:42.018Z,31.30
2022-08-17T18:29:30.079Z,31.30
2022-08-17T18:32:33.571Z,31.20
2022-08-17T18:35:08.768Z,31.10
2022-08-17T18:37:42.814Z,31.00
2022-08-17T18:40:19.631Z,31.00
2022-08-17T18:43:43.775Z,30.90
2022-08-17T18:46:35.279Z,30.80
2022-08-17T18:49:32.566Z,30.70
2022-08-17T18:52:33.483Z,30.60
2022-08-17T18:55:17.462Z,30.50
2022-08-17T18:58:10.249Z,30.40
2022-08-17T19:00:41.583Z,30.30
2022-08-17T19:03:18.368Z,30.20
2022-08-17T19:06:17.254Z,30.10
2022-08-17T19:08:45.242Z,30.10
2022-08-17T19:11:39.327Z,30.00
2022-08-17T19:14:17.240Z,29.90
2022-08-17T19:16:53.445Z,29.80
2022-08-17T19:19:58.116Z,29.80
2022-08-17T19:22:49.686Z,29.70
2022-08-17T19:25:30.682Z,29.60
2022-08-17T19:28:04.190Z,29.50
2022-08-17T19:30:55.978Z,29.50
2022-08-17T19:33:23.991Z,29.40
2022-08-17T19:36:28.611Z,29.30
2022-08-17T19:39:37.743Z,29.20
2022-08-17T19:42:29.722Z,29.20
2022-08-17T19:45:27.776Z,29.10
2022-08-17T19:48:41.749Z,29.00
2022-08-17T19:51:35.540Z,29.00
2022-08-17T19:54:39.965Z,28.90
2022-08-17T19:57:25.747Z,28.80
2022-08-17T20:00:05.775Z,28.70
2022-08-17T20:02:53.501Z,28.60
2022-08-17T20:05:40.650Z,28.60
2022-08-17T20:08:33.880Z,28.50
2022-08-17T20:11:41.567Z,28.40
2022-08-17T20:14:17.502Z,28.30
2022-08-17T20:16:44.971Z,28.20
2022-08-17T20:19:39.927Z,28.20
2022-08-17T20:22:20.456Z,28.10
2022-08-17T20:25:07.036Z,28.00
2022-08-17T20:27:51.468Z,28.00
2022-08-17T20:30:41.640Z,27.90
2022-08-17T20:33:36.334Z,27.80
2022-08-17T20:36:20.112Z,27.70
2022-08-17T20:38:54.415Z,27.70
2022-08-17T20:41:30.697Z,27.70
2022-08-17T20:43:58.630Z,27.60
2022-08-17T20:46:37.606Z,27.50
2022-08-17T20:49:39.949Z,27.50
2022-08-17T20:52:15.527Z,27.40
2022-08-17T20:54:57.326Z,27.30
2022-08-17T20:57:33.429Z,27.30
2022-08-17T21:00:19.232Z,27.20
2022-08-17T21:02:50.903Z,27.10
2022-08-17T21:05:53.861Z,27.10
2022-08-17T21:08:45.283Z,27.00
2022-08-17T21:12:03.067Z,27.00
2022-08-17T21:14:54.163Z,26.90
2022-08-17T21:17:42.781Z,26.90
2022-08-17T21:20:59.749Z,26.70
2022-08-17T21:24:07.450Z,26.70
2022-08-17T21:26:57.431Z,26.70
2022-08-17T21:29:31.211Z,26.60
2022-08-17T21:32:03.010Z,26.50
2022-08-17T21:34:38.249Z,26.50
2022-08-17T21:37:21.769Z,26.40
2022-08-17T21:40:19.743Z,26.40
2022-08-17T21:42:58.032Z,26.30
2022-08-17T21:45:35.532Z,26.30
2022-08-17T21:48:21.295Z,26.20
2022-08-17T21:51:10.899Z,26.20
2022-08-17T21:53:48.945Z,26.10
2022-08-17T21:56:30.356Z,26.10
2022-08-17T21:59:24.341Z,26.00
2022-08-17T22:02:07.337Z,25.90
2022-08-17T22:04:41.510Z,25.80
2022-08-17T22:07:13.866Z,25.80
2022-08-17T22:09:48.715Z,25.80
2022-08-17T22:12:24.163Z,25.70
2022-08-17T22:15:04.253Z,25.60
2022-08-17T22:17:40.281Z,25.60
2022-08-17T22:20:19.802Z,25.50
2022-08-17T22:23:08.769Z,25.50
2022-08-17T22:25:56.309Z,25.40
2022-08-17T22:28:52.856Z,25.40
2022-08-17T22:31:32.854Z,25.40
2022-08-17T22:34:00.227Z,25.30
2022-08-17T22:36:41.787Z,25.20
2022-08-17T22:39:09.178Z,25.20
2022-08-17T22:41:50.854Z,25.10
2022-08-17T22:44:27.202Z,25.10
2022-08-17T22:46:58.930Z,25.10
2022-08-17T22:49:54.027Z,25.00
2022-08-17T22:53:03.262Z,25.00
2022-08-17T22:55:52.484Z,24.90
2022-08-17T22:58:42.702Z,24.90
2022-08-17T23:01:32.573Z,24.90
2022-08-17T23:04:13.710Z,24.80
2022-08-17T23:06:44.548Z,24.80
2022-08-17T23:09:11.687Z,24.70
2022-08-17T23:11:53.333Z,24.60
2022-08-17T23:14:20.870Z,24.60
2022-08-17T23:16:50.275Z,24.60
2022-08-17T23:19:21.246Z,24.50
2022-08-17T23:21:50.964Z,24.50
2022-08-17T23:24:24.879Z,24.40
2022-08-17T23:26:52.612Z,24.40
2022-08-17T23:29:21.286Z,24.40
2022-08-17T23:31:50.587Z,24.30
2022-08-17T23:34:18.944Z,24.30
2022-08-17T23:36:50.603Z,24.20
2022-08-17T23:39:24.552Z,24.20
2022-08-17T23:41:57.734Z,24.20
2022-08-17T23:44:26.600Z,24.10
2022-08-17T23:46:55.005Z,24.10
2022-08-17T23:49:24.388Z,24.10
2022-08-17T23:51:54.584Z,24.00
2022-08-17T23:54:41.504Z,24.00
2022-08-17T23:57:20.878Z,23.90
